Monterey (MRY/KMRY)

Map

Destinations

Information

Location
Monterey, CA
Local Time
10:00 / 10:00 am
GMT Time
18:00 / 6:00 pm
Gates
1
No FAA reported delays
METAR KMRY 191654Z 00000KT 10SM CLR 13/06 A3014 RMK AO2 SLP220 T01280056
TAF KMRY 191120Z 1912/2012 10004KT P6SM FEW250 FM191800 29005KT P6SM BKN250 FM200300 11004KT P6SM BKN150